Bville, Texas
Current Conditions -  °F | °C
As of 1:53 PM on Tuesday 21 Oct 2014 (Local Time) from KBRO Reporting Station
Overcast Overcast  
Wind Chill: 84°   Ceiling: 7500
Heat Index: 89°   Visibility: 10mi
Dew Point: 71°   Wind: 9mph
Humidity: 65%   Direction: 70°ENE
Pressure: 29.92"   Gusts: 18mph
Location:  26.0002°N, 97.5729°W
Report Text: KBRO 211853Z 07008G16KT 10SM FEW036 BKN075 OVC095 29/22 A2992 RMK AO2 SLP129 T02890217
Loading
Personal Weather Stations






























Interactive Weather Map
Tropical Storm Tracking
New forecast layout! Learn more

10-Day Weather Forecast

Advertisements
Track Severe Weather on mobile